Terminal Aerodrome Forecast
Issued by NWS

Home | Current Version | Previous Version | Graphics & Text | Print | Product List | Glossary On
Versions: 1 2 3 4 5 6 7 8 9 10 11 12 13 14 15
000
FTUS43 KGRB 082300
TAFAUW
TAF
KAUW 082328Z 0900/0924 30009G14KT P6SM VCSH SCT025 BKN060
      TEMPO 0900/0903 5SM -SHRA BKN025
     FM090300 30005KT P6SM SCT030 SCT070
     FM091500 30009KT P6SM BKN035
     FM091700 30009G17KT P6SM VCSH BKN030 BKN070=

USA.gov is the U.S. government's official web portal to all federal, state and local government web resources and services.